createdAt,value
2018-11-28T00:00:28.916Z,2.93
2018-11-28T00:02:58.155Z,2.33
2018-11-28T00:05:26.696Z,2.43
2018-11-28T00:07:55.140Z,2.30
2018-11-28T00:10:23.589Z,2.23
2018-11-28T00:12:52.060Z,2.30
2018-11-28T00:15:20.569Z,2.17
2018-11-28T00:17:49.004Z,2.30
2018-11-28T00:20:18.608Z,2.53
2018-11-28T00:22:47.221Z,2.17
2018-11-28T00:25:16.168Z,2.10
2018-11-28T00:27:44.893Z,2.83
2018-11-28T00:30:14.852Z,2.23
2018-11-28T00:32:43.291Z,2.20
2018-11-28T00:35:12.084Z,3.03
2018-11-28T00:37:40.840Z,2.80
2018-11-28T00:40:10.795Z,2.20
2018-11-28T00:42:41.442Z,2.27
2018-11-28T00:45:13.063Z,2.40
2018-11-28T00:47:41.513Z,2.67
2018-11-28T00:50:10.543Z,2.40
2018-11-28T00:52:38.992Z,2.53
2018-11-28T00:55:08.296Z,2.43
2018-11-28T00:57:37.006Z,3.27
2018-11-28T01:00:15.122Z,3.20
2018-11-28T01:02:43.799Z,2.63
2018-11-28T01:05:12.476Z,2.70
2018-11-28T01:07:41.020Z,2.50
2018-11-28T01:10:10.198Z,2.60
2018-11-28T01:12:38.644Z,2.63
2018-11-28T01:15:07.781Z,2.97
2018-11-28T01:17:36.237Z,2.87
2018-11-28T01:20:06.702Z,2.80
2018-11-28T01:22:35.401Z,3.10
2018-11-28T01:25:04.036Z,3.00
2018-11-28T01:27:32.478Z,2.93
2018-11-28T01:30:00.929Z,2.90
2018-11-28T01:32:29.394Z,3.27
2018-11-28T01:34:57.836Z,3.43
2018-11-28T01:37:26.289Z,3.67
2018-11-28T01:39:54.757Z,3.33
2018-11-28T01:42:23.200Z,3.13
2018-11-28T01:44:51.652Z,4.00
2018-11-28T01:47:20.113Z,4.30
2018-11-28T01:49:48.560Z,4.07
2018-11-28T01:52:17.074Z,4.50
2018-11-28T01:54:45.783Z,4.13
2018-11-28T01:57:14.312Z,4.80
2018-11-28T01:59:42.761Z,4.20
2018-11-28T02:02:11.228Z,4.40
2018-11-28T02:04:39.677Z,4.50
2018-11-28T02:07:08.137Z,4.37
2018-11-28T02:09:36.605Z,4.80
2018-11-28T02:12:05.047Z,4.37
2018-11-28T02:14:33.501Z,3.80
2018-11-28T02:17:02.209Z,4.57
2018-11-28T02:19:30.737Z,4.73
2018-11-28T02:21:59.438Z,4.63
2018-11-28T02:24:27.989Z,4.73
2018-11-28T02:26:56.456Z,4.50
2018-11-28T02:29:24.903Z,4.30
2018-11-28T02:31:53.365Z,5.10
2018-11-28T02:34:21.814Z,4.77
2018-11-28T02:36:50.253Z,4.53
2018-11-28T02:39:18.714Z,5.40
2018-11-28T02:41:47.217Z,4.57
2018-11-28T02:44:15.671Z,5.00
2018-11-28T02:46:44.134Z,4.53
2018-11-28T02:49:12.577Z,4.73
2018-11-28T02:51:41.029Z,5.80
2018-11-28T02:54:09.484Z,5.60
2018-11-28T02:56:37.935Z,5.07
2018-11-28T02:59:06.389Z,5.20
2018-11-28T03:01:34.849Z,5.20
2018-11-28T03:04:03.537Z,5.70
2018-11-28T03:06:32.081Z,4.80
2018-11-28T03:09:00.550Z,5.60
2018-11-28T03:11:28.990Z,5.00
2018-11-28T03:13:57.435Z,5.53
2018-11-28T03:16:25.905Z,5.90
2018-11-28T03:18:54.344Z,5.33
2018-11-28T03:21:22.807Z,5.93
2018-11-28T03:23:51.256Z,5.73
2018-11-28T03:26:19.764Z,5.90
2018-11-28T03:28:48.283Z,5.70
2018-11-28T03:31:16.812Z,5.77
2018-11-28T03:33:45.252Z,5.30
2018-11-28T03:36:13.703Z,5.73
2018-11-28T03:38:42.158Z,6.20
2018-11-28T03:41:10.622Z,6.03
2018-11-28T03:43:39.075Z,6.63
2018-11-28T03:46:07.532Z,6.43
2018-11-28T03:48:35.983Z,6.03
2018-11-28T03:51:04.506Z,6.30
2018-11-28T03:53:32.977Z,6.33
2018-11-28T03:56:01.425Z,7.13
2018-11-28T03:58:29.868Z,6.33
2018-11-28T04:00:58.328Z,6.63
2018-11-28T04:03:26.776Z,6.30
2018-11-28T04:05:55.234Z,6.20
2018-11-28T04:08:23.692Z,7.00
2018-11-28T04:10:52.154Z,7.80
2018-11-28T04:13:20.645Z,6.97
2018-11-28T04:15:49.330Z,6.97
2018-11-28T04:18:17.860Z,7.03
2018-11-28T04:20:46.307Z,7.20
2018-11-28T04:23:14.790Z,6.70
2018-11-28T04:25:43.231Z,6.90
2018-11-28T04:28:11.681Z,6.80
2018-11-28T04:30:40.167Z,6.93
2018-11-28T04:33:08.628Z,6.40
2018-11-28T04:35:37.081Z,6.63
2018-11-28T04:38:05.531Z,6.03
2018-11-28T04:40:33.989Z,6.97
2018-11-28T04:43:02.435Z,7.20
2018-11-28T04:45:30.901Z,6.67
2018-11-28T04:47:59.370Z,7.07
2018-11-28T04:50:27.817Z,6.87
2018-11-28T04:52:56.278Z,6.40
2018-11-28T04:55:24.726Z,6.67
2018-11-28T04:57:53.178Z,7.27
2018-11-28T05:00:23.177Z,6.97
2018-11-28T05:02:52.566Z,6.53
2018-11-28T05:05:21.125Z,6.33
2018-11-28T05:07:50.324Z,6.40
2018-11-28T05:10:20.740Z,7.10
2018-11-28T05:12:49.785Z,6.63
2018-11-28T05:15:19.687Z,6.80
2018-11-28T05:17:48.533Z,6.43
2018-11-28T05:20:17.454Z,6.73
2018-11-28T05:22:45.910Z,6.30
2018-11-28T05:25:14.857Z,6.20
2018-11-28T05:27:43.298Z,6.10
2018-11-28T05:30:12.368Z,6.27
2018-11-28T05:32:40.880Z,6.50
2018-11-28T05:35:09.991Z,5.80
2018-11-28T05:37:38.485Z,6.57
2018-11-28T05:40:08.001Z,5.60
2018-11-28T05:42:36.455Z,6.60
2018-11-28T05:45:06.756Z,6.47
2018-11-28T05:47:35.260Z,6.47
2018-11-28T05:50:04.404Z,5.73
2018-11-28T05:52:32.872Z,6.33
2018-11-28T05:55:01.317Z,6.40
2018-11-28T05:57:29.776Z,6.23
2018-11-28T05:59:58.246Z,6.40
2018-11-28T06:02:26.701Z,7.50
2018-11-28T06:04:55.148Z,7.57
2018-11-28T06:07:23.607Z,6.27
2018-11-28T06:09:52.052Z,6.43
2018-11-28T06:12:20.500Z,6.83
2018-11-28T06:14:48.969Z,6.90
2018-11-28T06:17:17.418Z,6.50
2018-11-28T06:19:45.968Z,6.93
2018-11-28T06:22:14.448Z,7.00
2018-11-28T06:24:42.900Z,6.87
2018-11-28T06:27:11.360Z,7.00
2018-11-28T06:29:39.826Z,7.20
2018-11-28T06:32:08.273Z,7.17
2018-11-28T06:34:36.728Z,7.07
2018-11-28T06:37:05.332Z,7.50
2018-11-28T06:39:33.776Z,6.37
2018-11-28T06:42:02.321Z,7.37
2018-11-28T06:44:31.041Z,6.90
2018-11-28T06:46:59.573Z,7.67
2018-11-28T06:49:28.012Z,7.50
2018-11-28T06:51:56.479Z,7.30
2018-11-28T06:54:25.174Z,7.90
2018-11-28T06:56:53.709Z,8.60
2018-11-28T06:59:22.169Z,8.10
2018-11-28T07:01:55.718Z,7.83
2018-11-28T07:04:24.218Z,8.00
2018-11-28T07:06:52.862Z,8.07
2018-11-28T07:09:21.409Z,9.43
2018-11-28T07:11:49.873Z,9.33
2018-11-28T07:14:18.320Z,8.70
2018-11-28T07:16:46.765Z,9.30
2018-11-28T07:19:15.476Z,9.27
2018-11-28T07:21:44.020Z,9.63
2018-11-28T07:24:12.478Z,9.03
2018-11-28T07:26:40.931Z,8.53
2018-11-28T07:29:09.378Z,9.30
2018-11-28T07:31:37.824Z,9.80
2018-11-28T07:34:06.288Z,9.87
2018-11-28T07:36:34.761Z,9.23
2018-11-28T07:39:03.884Z,8.97
2018-11-28T07:41:32.373Z,9.50
2018-11-28T07:44:00.911Z,8.37
2018-11-28T07:46:29.357Z,9.03
2018-11-28T07:48:57.825Z,9.50
2018-11-28T07:51:26.278Z,9.70
2018-11-28T07:53:54.715Z,9.77
2018-11-28T07:56:23.173Z,9.67
2018-11-28T07:58:51.882Z,10.83
2018-11-28T08:01:20.428Z,9.87
2018-11-28T08:03:48.889Z,9.90
2018-11-28T08:06:17.339Z,9.77
2018-11-28T08:08:45.780Z,8.57
2018-11-28T08:11:14.238Z,9.57
2018-11-28T08:13:42.692Z,9.87
2018-11-28T08:16:11.141Z,9.97
2018-11-28T08:18:39.605Z,9.10
2018-11-28T08:21:08.064Z,10.03
2018-11-28T08:23:36.533Z,9.97
2018-11-28T08:26:05.179Z,10.07
2018-11-28T08:28:33.551Z,9.53
2018-11-28T08:31:02.000Z,10.07
2018-11-28T08:33:30.473Z,9.23
2018-11-28T08:35:58.918Z,9.03
2018-11-28T08:38:27.372Z,9.20
2018-11-28T08:40:55.844Z,9.20
2018-11-28T08:43:24.296Z,8.77
2018-11-28T08:45:52.732Z,10.60
2018-11-28T08:48:21.251Z,9.10
2018-11-28T08:50:49.652Z,10.10
2018-11-28T08:53:18.096Z,9.07
2018-11-28T08:55:46.556Z,9.57
2018-11-28T08:58:15.003Z,8.50
2018-11-28T09:00:43.709Z,7.70
2018-11-28T09:03:12.262Z,7.70
2018-11-28T09:05:40.705Z,7.37
2018-11-28T09:08:09.149Z,7.50
2018-11-28T09:10:37.619Z,7.33
2018-11-28T09:13:06.161Z,7.50
2018-11-28T09:15:34.600Z,7.40
2018-11-28T09:18:03.060Z,7.63
2018-11-28T09:20:31.516Z,8.00
2018-11-28T09:22:59.962Z,7.50
2018-11-28T09:25:28.490Z,7.87
2018-11-28T09:27:57.445Z,7.80
2018-11-28T09:30:25.894Z,7.40
2018-11-28T09:32:54.339Z,7.53
2018-11-28T09:35:22.790Z,7.80
2018-11-28T09:37:51.473Z,6.53
2018-11-28T09:40:20.542Z,7.63
2018-11-28T09:42:49.246Z,6.43
2018-11-28T09:45:17.877Z,6.80
2018-11-28T09:47:46.346Z,6.43
2018-11-28T09:50:17.609Z,7.23
2018-11-28T09:52:51.161Z,6.77
2018-11-28T09:55:21.127Z,6.33
2018-11-28T09:57:49.579Z,6.80
2018-11-28T10:00:18.357Z,6.40
2018-11-28T10:02:46.968Z,6.07
2018-11-28T10:05:18.706Z,6.50
2018-11-28T10:07:47.507Z,6.60
2018-11-28T10:10:16.041Z,6.90
2018-11-28T10:12:44.560Z,6.20
2018-11-28T10:15:16.445Z,6.57
2018-11-28T10:17:44.955Z,7.23
2018-11-28T10:20:13.732Z,8.20
2018-11-28T10:22:42.300Z,7.97
2018-11-28T10:25:14.332Z,8.17
2018-11-28T10:27:43.265Z,10.07
2018-11-28T10:30:12.591Z,10.10
2018-11-28T10:32:41.044Z,11.90
2018-11-28T10:35:11.855Z,11.00
2018-11-28T10:37:40.388Z,12.83
2018-11-28T10:40:11.600Z,13.60
2018-11-28T10:42:40.105Z,14.70
2018-11-28T10:45:09.313Z,13.47
2018-11-28T10:47:37.765Z,14.37
2018-11-28T10:50:07.248Z,14.70
2018-11-28T10:52:35.954Z,17.00
2018-11-28T10:55:06.216Z,15.43
2018-11-28T10:57:34.791Z,15.87
2018-11-28T11:00:03.302Z,14.07
2018-11-28T11:02:37.173Z,16.60
2018-11-28T11:05:12.834Z,16.43
2018-11-28T11:07:46.928Z,15.83
2018-11-28T11:10:20.937Z,14.50
2018-11-28T11:12:54.907Z,17.53
2018-11-28T11:15:23.356Z,16.60
2018-11-28T11:17:52.066Z,16.73
2018-11-28T11:20:20.620Z,16.07
2018-11-28T11:22:49.072Z,18.17
2018-11-28T11:25:17.525Z,16.53
2018-11-28T11:27:45.985Z,18.43
2018-11-28T11:30:14.442Z,15.63
2018-11-28T11:32:42.891Z,17.87
2018-11-28T11:35:11.360Z,16.83
2018-11-28T11:37:39.822Z,17.50
2018-11-28T11:40:10.279Z,17.60
2018-11-28T11:42:38.772Z,18.20
2018-11-28T11:45:08.556Z,16.13
2018-11-28T11:47:37.037Z,17.13
2018-11-28T11:50:08.190Z,16.32
2018-11-28T11:52:36.644Z,19.03
2018-11-28T11:55:07.312Z,15.45
2018-11-28T11:57:35.869Z,16.30
2018-11-28T12:00:05.685Z,17.10
2018-11-28T12:02:34.136Z,18.83
2018-11-28T12:05:02.622Z,16.77
2018-11-28T12:07:31.069Z,17.63
2018-11-28T12:09:59.508Z,18.30
2018-11-28T12:12:28.352Z,18.13
2018-11-28T12:14:56.436Z,18.80
2018-11-28T12:17:24.888Z,18.20
2018-11-28T12:19:53.379Z,18.77
2018-11-28T12:22:22.073Z,17.33
2018-11-28T12:24:50.603Z,18.20
2018-11-28T12:27:19.145Z,18.27
2018-11-28T12:29:47.597Z,15.90
2018-11-28T12:32:16.044Z,18.47
2018-11-28T12:34:50.309Z,16.93
2018-11-28T12:37:13.197Z,18.73
2018-11-28T12:39:41.981Z,16.57
2018-11-28T12:42:10.549Z,18.30
2018-11-28T12:44:39.016Z,17.97
2018-11-28T12:47:07.485Z,16.17
2018-11-28T12:49:35.951Z,17.43
2018-11-28T12:52:04.427Z,17.90
2018-11-28T12:54:32.877Z,17.67
2018-11-28T12:57:01.341Z,17.57
2018-11-28T12:59:29.797Z,16.07
2018-11-28T13:01:58.344Z,18.00
2018-11-28T13:04:26.855Z,18.63
2018-11-28T13:06:55.296Z,17.80
2018-11-28T13:09:23.751Z,16.87
2018-11-28T13:11:52.220Z,16.07
2018-11-28T13:14:20.680Z,15.83
2018-11-28T13:16:49.138Z,17.80
2018-11-28T13:19:17.598Z,17.83
2018-11-28T13:21:46.047Z,17.57
2018-11-28T13:24:14.496Z,17.20
2018-11-28T13:26:42.985Z,17.70
2018-11-28T13:29:11.441Z,16.90
2018-11-28T13:31:39.905Z,15.43
2018-11-28T13:34:08.557Z,15.77
2018-11-28T13:36:37.265Z,16.30
2018-11-28T13:39:06.914Z,15.33
2018-11-28T13:41:35.477Z,15.33
2018-11-28T13:44:03.981Z,17.30
2018-11-28T13:46:32.441Z,17.13
2018-11-28T13:49:00.965Z,16.00
2018-11-28T13:51:29.665Z,16.67
2018-11-28T13:53:58.198Z,14.97
2018-11-28T13:56:57.778Z,16.70
2018-11-28T13:58:55.116Z,16.43
2018-11-28T14:01:23.584Z,16.77
2018-11-28T14:03:52.056Z,15.30
2018-11-28T14:06:20.499Z,17.00
2018-11-28T14:08:48.961Z,16.53
2018-11-28T14:11:17.424Z,16.43
2018-11-28T14:13:46.135Z,15.77
2018-11-28T14:16:14.681Z,16.77
2018-11-28T14:18:43.146Z,17.10
2018-11-28T14:21:11.583Z,15.73
2018-11-28T14:23:40.041Z,15.70
2018-11-28T14:26:08.513Z,15.77
2018-11-28T14:28:36.961Z,14.67
2018-11-28T14:31:05.733Z,14.83
2018-11-28T14:33:34.256Z,15.13
2018-11-28T14:36:02.655Z,16.50
2018-11-28T14:38:32.185Z,16.73
2018-11-28T14:41:00.748Z,16.10
2018-11-28T14:43:29.204Z,16.13
2018-11-28T14:45:57.665Z,15.87
2018-11-28T14:48:26.140Z,16.30
2018-11-28T14:50:54.622Z,14.80
2018-11-28T14:53:23.077Z,17.60
2018-11-28T14:55:51.575Z,14.90
2018-11-28T14:58:20.021Z,15.77
2018-11-28T15:00:48.489Z,16.47
2018-11-28T15:03:17.452Z,17.23
2018-11-28T15:05:55.180Z,15.73
2018-11-28T15:08:23.908Z,15.97
2018-11-28T15:11:09.375Z,16.50
2018-11-28T15:13:38.062Z,17.00
2018-11-28T15:16:06.664Z,16.90
2018-11-28T15:18:35.114Z,16.40
2018-11-28T15:21:03.588Z,15.47
2018-11-28T15:23:32.040Z,17.33
2018-11-28T15:26:00.501Z,18.03
2018-11-28T15:28:28.965Z,18.10
2018-11-28T15:30:57.459Z,19.43
2018-11-28T15:33:25.917Z,18.50
2018-11-28T15:35:54.399Z,16.90
2018-11-28T15:38:22.847Z,18.23
2018-11-28T15:40:51.439Z,17.50
2018-11-28T15:43:19.904Z,17.50
2018-11-28T15:45:48.375Z,17.63
2018-11-28T15:48:16.826Z,19.23
2018-11-28T15:50:45.284Z,17.67
2018-11-28T15:53:13.794Z,18.83
2018-11-28T15:55:42.238Z,17.27
2018-11-28T15:58:10.711Z,17.77
2018-11-28T16:00:39.240Z,16.67
2018-11-28T16:03:07.737Z,18.87
2018-11-28T16:05:36.218Z,16.83
2018-11-28T16:08:04.801Z,15.77
2018-11-28T16:10:37.647Z,17.30
2018-11-28T16:13:06.472Z,18.30
2018-11-28T16:15:35.974Z,14.90
2018-11-28T16:18:04.515Z,16.27
2018-11-28T16:20:32.977Z,16.43
2018-11-28T16:23:04.214Z,17.00
2018-11-28T16:25:29.927Z,13.20
2018-11-28T16:27:58.377Z,15.27
2018-11-28T16:30:26.848Z,16.60
2018-11-28T16:33:00.363Z,16.93
2018-11-28T16:35:28.812Z,20.72
2018-11-28T16:37:57.264Z,16.93
2018-11-28T16:40:25.732Z,14.77
2018-11-28T16:42:54.300Z,17.37
2018-11-28T16:45:22.734Z,14.50
2018-11-28T16:47:51.200Z,16.47
2018-11-28T16:50:19.661Z,16.20
2018-11-28T16:52:48.109Z,14.97
2018-11-28T16:55:16.968Z,15.27
2018-11-28T16:57:46.056Z,14.90
2018-11-28T17:00:15.121Z,15.50
2018-11-28T17:02:43.593Z,13.73
2018-11-28T17:05:14.613Z,14.53
2018-11-28T17:07:43.127Z,15.47
2018-11-28T17:10:18.763Z,14.00
2018-11-28T17:12:47.706Z,15.67
2018-11-28T17:15:16.564Z,14.73
2018-11-28T17:17:45.117Z,13.83
2018-11-28T17:20:16.986Z,14.67
2018-11-28T17:22:45.532Z,13.10
2018-11-28T17:25:15.542Z,15.73
2018-11-28T17:27:43.999Z,13.43
2018-11-28T17:30:12.950Z,13.60
2018-11-28T17:32:41.432Z,13.37
2018-11-28T17:35:10.328Z,14.87
2018-11-28T17:37:38.805Z,13.83
2018-11-28T17:40:09.065Z,15.20
2018-11-28T17:42:37.525Z,14.23
2018-11-28T17:45:07.675Z,14.37
2018-11-28T17:47:36.169Z,12.83
2018-11-28T17:50:07.276Z,13.87
2018-11-28T17:52:36.030Z,14.13
2018-11-28T17:55:06.785Z,15.23
2018-11-28T17:57:35.305Z,14.23
2018-11-28T18:00:04.104Z,14.17
2018-11-28T18:02:32.590Z,15.00
2018-11-28T18:05:01.048Z,16.00
2018-11-28T18:07:29.520Z,15.70
2018-11-28T18:09:58.282Z,14.60
2018-11-28T18:12:26.862Z,14.70
2018-11-28T18:14:55.574Z,14.63
2018-11-28T18:17:24.160Z,15.27
2018-11-28T18:19:52.628Z,16.43
2018-11-28T18:22:21.116Z,17.60
2018-11-28T18:24:49.608Z,16.50
2018-11-28T18:27:18.127Z,17.20
2018-11-28T18:29:47.655Z,17.37
2018-11-28T18:32:15.938Z,16.50
2018-11-28T18:34:44.381Z,15.67
2018-11-28T18:37:12.853Z,18.33
2018-11-28T18:39:41.564Z,17.83
2018-11-28T18:42:15.426Z,16.63
2018-11-28T18:44:44.022Z,17.23
2018-11-28T18:47:12.493Z,14.13
2018-11-28T18:49:40.976Z,15.63
2018-11-28T18:52:09.757Z,17.23
2018-11-28T18:54:38.323Z,17.73
2018-11-28T18:57:06.787Z,17.07
2018-11-28T18:59:35.289Z,16.77
2018-11-28T19:02:04.040Z,18.00
2018-11-28T19:04:32.590Z,16.17
2018-11-28T19:07:01.066Z,16.80
2018-11-28T19:09:34.916Z,16.57
2018-11-28T19:12:03.406Z,14.80
2018-11-28T19:14:31.881Z,17.07
2018-11-28T19:17:00.342Z,16.57
2018-11-28T19:19:28.813Z,17.10
2018-11-28T19:21:57.283Z,15.27
2018-11-28T19:24:26.404Z,18.13
2018-11-28T19:26:54.877Z,15.87
2018-11-28T19:29:23.344Z,17.47
2018-11-28T19:31:51.806Z,18.27
2018-11-28T19:34:20.293Z,16.33
2018-11-28T19:36:48.773Z,17.60
2018-11-28T19:39:17.242Z,16.37
2018-11-28T19:41:50.753Z,17.67
2018-11-28T19:44:19.210Z,17.47
2018-11-28T19:46:47.908Z,17.23
2018-11-28T19:49:16.480Z,17.83
2018-11-28T19:51:49.961Z,15.30
2018-11-28T19:54:18.428Z,17.90
2018-11-28T19:56:46.892Z,16.57
2018-11-28T19:59:15.348Z,16.23
2018-11-28T20:01:43.933Z,17.60
2018-11-28T20:04:12.396Z,21.10
2018-11-28T20:06:40.855Z,17.63
2018-11-28T20:09:16.434Z,18.50
2018-11-28T20:11:45.000Z,17.30
2018-11-28T20:14:13.463Z,16.53
2018-11-28T20:16:41.938Z,14.93
2018-11-28T20:19:10.439Z,18.70
2018-11-28T20:21:38.925Z,17.53
2018-11-28T20:24:07.430Z,18.87
2018-11-28T20:26:35.878Z,17.60
2018-11-28T20:29:04.339Z,17.00
2018-11-28T20:31:32.869Z,18.43
2018-11-28T20:34:01.328Z,16.87
2018-11-28T20:36:30.058Z,17.93
2018-11-28T20:38:58.622Z,17.50
2018-11-28T20:41:27.097Z,18.60
2018-11-28T20:43:55.553Z,18.93
2018-11-28T20:46:24.281Z,18.57
2018-11-28T20:48:53.142Z,18.50
2018-11-28T20:51:21.592Z,17.77
2018-11-28T20:53:50.072Z,17.57
2018-11-28T20:56:18.537Z,15.53
2018-11-28T20:58:46.997Z,16.70
2018-11-28T21:01:15.464Z,16.77
2018-11-28T21:03:44.205Z,14.30
2018-11-28T21:06:12.769Z,16.00
2018-11-28T21:08:41.481Z,18.40
2018-11-28T21:11:10.313Z,17.30
2018-11-28T21:13:38.863Z,17.40
2018-11-28T21:16:07.324Z,17.87
2018-11-28T21:18:35.985Z,17.90
2018-11-28T21:21:05.088Z,17.00
2018-11-28T21:23:33.665Z,17.20
2018-11-28T21:26:02.385Z,17.50
2018-11-28T21:28:30.945Z,16.13
2018-11-28T21:30:59.721Z,16.97
2018-11-28T21:33:28.510Z,17.70
2018-11-28T21:35:57.058Z,15.67
2018-11-28T21:38:25.855Z,17.10
2018-11-28T21:40:54.444Z,15.77
2018-11-28T21:43:22.888Z,14.07
2018-11-28T21:45:51.592Z,14.67
2018-11-28T21:48:20.401Z,16.37
2018-11-28T21:50:48.952Z,18.13
2018-11-28T21:53:17.420Z,17.87
2018-11-28T21:55:46.125Z,15.93
2018-11-28T21:58:14.681Z,17.87
2018-11-28T22:00:43.397Z,17.20
2018-11-28T22:03:11.944Z,16.00
2018-11-28T22:05:40.657Z,16.37
2018-11-28T22:08:09.484Z,16.63
2018-11-28T22:10:38.272Z,19.43
2018-11-28T22:13:06.816Z,17.03
2018-11-28T22:15:35.545Z,16.10
2018-11-28T22:18:04.349Z,16.70
2018-11-28T22:20:32.895Z,16.63
2018-11-28T22:23:01.388Z,16.40
2018-11-28T22:25:30.129Z,16.07
2018-11-28T22:27:58.677Z,17.90
2018-11-28T22:30:27.671Z,15.93
2018-11-28T22:32:56.689Z,16.47
2018-11-28T22:35:25.496Z,16.90
2018-11-28T22:37:54.309Z,16.13
2018-11-28T22:40:23.544Z,17.50
2018-11-28T22:42:52.318Z,17.00
2018-11-28T22:45:23.486Z,16.90
2018-11-28T22:47:52.187Z,15.57
2018-11-28T22:50:20.735Z,17.50
2018-11-28T22:52:49.216Z,15.20
2018-11-28T22:55:17.706Z,17.00
2018-11-28T22:57:46.169Z,16.63
2018-11-28T23:00:15.091Z,16.23
2018-11-28T23:02:50.123Z,17.63
2018-11-28T23:05:18.627Z,15.80
2018-11-28T23:07:47.088Z,15.47
2018-11-28T23:10:15.576Z,16.27
2018-11-28T23:12:44.054Z,15.87
2018-11-28T23:15:12.510Z,16.53
2018-11-28T23:17:40.960Z,16.30
2018-11-28T23:20:09.648Z,17.27
2018-11-28T23:22:38.110Z,16.03
2018-11-28T23:25:07.516Z,19.23
2018-11-28T23:27:36.261Z,16.27
2018-11-28T23:30:07.885Z,18.13
2018-11-28T23:32:36.375Z,16.13
2018-11-28T23:35:06.268Z,18.43
2018-11-28T23:37:34.724Z,18.03
2018-11-28T23:40:03.559Z,14.73
2018-11-28T23:42:32.025Z,16.13
2018-11-28T23:45:00.733Z,16.53
2018-11-28T23:47:29.271Z,16.97
2018-11-28T23:49:57.980Z,16.13
2018-11-28T23:52:26.601Z,19.00
2018-11-28T23:54:55.060Z,15.87
2018-11-28T23:57:23.529Z,17.50
2018-11-28T23:59:51.988Z,16.03
